Time;durP1;ratioP1;P1;durP2;ratioP2;P2;SDS_P1;SDS_P2;PMS_P1;PMS_P2;Temp;Humidity;BMP_temperature;BMP_pressure;BME280_temperature;BME280_humidity;BME280_pressure;Samples;Min_cycle;Max_cycle;Signal;HPM_P1;HPM_P2
2022/06/01 00:00:42;;;;;;;4.93;4.10;;;11.80;99.90;;;;;;5116712;28;20290;-72
2022/06/01 00:03:08;;;;;;;5.83;4.40;;;11.70;99.90;;;;;;5116576;28;20680;-72
2022/06/01 00:05:36;;;;;;;5.17;4.30;;;11.70;99.90;;;;;;5117025;28;20273;-72
2022/06/01 00:08:04;;;;;;;5.53;4.80;;;11.60;99.90;;;;;;5116416;28;20228;-72
2022/06/01 00:10:31;;;;;;;7.97;5.00;;;11.60;99.90;;;;;;5116752;28;20217;-72
2022/06/01 00:12:58;;;;;;;6.47;4.33;;;11.40;99.90;;;;;;5116546;28;20199;-72
2022/06/01 00:15:26;;;;;;;5.00;4.40;;;11.60;99.90;;;;;;5116486;28;20260;-72
2022/06/01 00:17:53;;;;;;;6.00;4.40;;;11.70;99.90;;;;;;5116715;28;20245;-72
2022/06/01 00:20:20;;;;;;;4.57;4.13;;;11.70;99.90;;;;;;5116516;28;20210;-72
2022/06/01 00:22:48;;;;;;;5.97;4.40;;;11.70;99.90;;;;;;5116487;28;20196;-72
2022/06/01 00:25:16;;;;;;;6.80;4.47;;;11.80;99.90;;;;;;5116442;28;20200;-72
2022/06/01 00:27:43;;;;;;;7.47;4.57;;;11.80;99.90;;;;;;5116142;28;20227;-71
2022/06/01 00:30:12;;;;;;;5.23;4.73;;;12.00;99.90;;;;;;5116277;28;20195;-72
2022/06/01 00:32:39;;;;;;;7.27;4.40;;;12.00;99.90;;;;;;5116176;28;20666;-72
2022/06/01 00:35:09;;;;;;;5.13;4.20;;;12.00;99.90;;;;;;5116276;28;20191;-72
2022/06/01 00:37:35;;;;;;;4.97;4.40;;;11.90;99.90;;;;;;5116137;28;20200;-72
2022/06/01 00:40:04;;;;;;;6.87;5.03;;;11.90;99.90;;;;;;5116089;28;20246;-72
2022/06/01 00:42:32;;;;;;;6.20;5.30;;;11.70;99.90;;;;;;5115988;28;20258;-72
2022/06/01 00:44:59;;;;;;;6.70;4.90;;;11.80;99.90;;;;;;5116139;28;20249;-72
2022/06/01 00:47:27;;;;;;;5.57;4.33;;;11.90;99.90;;;;;;5115976;28;20219;-73
2022/06/01 00:49:57;;;;;;;5.40;4.50;;;11.80;99.90;;;;;;5116003;28;20203;-72
2022/06/01 00:52:36;;;;;;;5.83;4.63;;;11.70;99.90;;;;;;5115837;28;20196;-72
2022/06/01 00:55:09;;;;;;;4.87;4.40;;;11.60;99.90;;;;;;5115702;28;20278;-72
2022/06/01 00:57:36;;;;;;;6.80;4.60;;;11.60;99.90;;;;;;5115861;28;20206;-72
2022/06/01 01:00:06;;;;;;;5.40;4.90;;;11.80;99.90;;;;;;5115830;28;20192;-72
2022/06/01 01:02:33;;;;;;;5.87;5.23;;;11.80;99.90;;;;;;5114760;28;20604;-71
2022/06/01 01:05:02;;;;;;;6.17;5.57;;;11.80;99.90;;;;;;5115366;28;20725;-72
2022/06/01 01:07:29;;;;;;;5.73;5.23;;;11.70;99.90;;;;;;5115351;28;20223;-71
2022/06/01 01:09:56;;;;;;;7.13;6.17;;;11.50;99.90;;;;;;5115396;28;20196;-72
2022/06/01 01:12:25;;;;;;;6.43;5.83;;;11.40;99.90;;;;;;5115555;28;20272;-71
2022/06/01 01:14:51;;;;;;;6.40;5.90;;;11.20;99.90;;;;;;5115416;28;20196;-72
2022/06/01 01:17:21;;;;;;;8.57;5.43;;;11.00;99.90;;;;;;5115261;28;20199;-72
2022/06/01 01:19:51;;;;;;;6.97;6.37;;;10.80;99.90;;;;;;5115222;28;20738;-72
2022/06/01 01:22:36;;;;;;;6.63;6.03;;;10.90;99.90;;;;;;5115247;28;20520;-72
2022/06/01 01:25:20;;;;;;;6.83;6.23;;;10.80;99.90;;;;;;5115378;28;20286;-72
2022/06/01 01:27:51;;;;;;;7.63;6.83;;;10.60;99.90;;;;;;5115177;28;20227;-72
2022/06/01 01:30:50;;;;;;;7.00;6.40;;;10.60;99.90;;;;;;5115064;28;20219;-72
2022/06/01 01:33:19;;;;;;;9.77;8.87;;;10.50;99.90;;;;;;5115137;28;20200;-72
2022/06/01 01:35:49;;;;;;;9.23;8.33;;;10.40;99.90;;;;;;5115079;28;20272;-72
2022/06/01 01:38:25;;;;;;;9.10;8.20;;;10.40;99.90;;;;;;5115246;28;20241;-72
2022/06/01 01:41:06;;;;;;;9.97;8.30;;;10.40;99.90;;;;;;5114850;28;20196;-72
2022/06/01 01:43:37;;;;;;;10.10;8.53;;;10.40;99.90;;;;;;5114814;28;20723;-72
2022/06/01 01:46:04;;;;;;;8.80;7.83;;;10.40;99.90;;;;;;5114860;28;20195;-72
2022/06/01 01:48:32;;;;;;;10.17;8.47;;;10.30;99.90;;;;;;5114554;28;20692;-72
2022/06/01 01:50:59;;;;;;;9.60;8.67;;;10.40;99.90;;;;;;5114632;28;20202;-72
2022/06/01 01:53:26;;;;;;;9.20;8.00;;;10.40;99.90;;;;;;5114839;28;20241;-72
2022/06/01 01:56:02;;;;;;;9.50;8.60;;;10.40;99.90;;;;;;5114492;28;20582;-72
2022/06/01 01:58:35;;;;;;;9.93;8.20;;;10.40;99.90;;;;;;5114691;28;20286;-72
2022/06/01 02:01:07;;;;;;;9.30;8.47;;;10.40;99.90;;;;;;5114550;28;20286;-72
2022/06/01 02:03:39;;;;;;;9.70;8.70;;;10.40;99.90;;;;;;5114265;28;20228;-73
2022/06/01 02:06:12;;;;;;;10.47;8.60;;;10.40;99.90;;;;;;5114719;28;20581;-73
2022/06/01 02:08:46;;;;;;;8.90;8.00;;;10.30;99.90;;;;;;5114574;28;20227;-72
2022/06/01 02:14:08;;;;;;;9.47;8.50;;;10.30;99.90;;;;;;5114186;28;20214;-73
2022/06/01 02:16:39;;;;;;;11.40;9.10;;;10.30;99.90;;;;;;5114156;28;20236;-73
2022/06/01 02:19:16;;;;;;;10.00;8.40;;;10.40;99.90;;;;;;5114297;28;20203;-73
2022/06/01 02:21:43;;;;;;;9.43;8.53;;;10.30;99.90;;;;;;5114098;28;20654;-72
2022/06/01 02:24:10;;;;;;;10.30;9.20;;;10.20;99.90;;;;;;5114033;28;20196;-72
2022/06/01 02:26:37;;;;;;;9.57;8.67;;;10.30;99.90;;;;;;5113900;28;20736;-73
2022/06/01 02:29:08;;;;;;;9.77;8.87;;;10.20;99.90;;;;;;5114080;28;20276;-72
2022/06/01 02:31:37;;;;;;;9.30;8.40;;;10.20;99.90;;;;;;5113821;28;20237;-72
2022/06/01 02:34:05;;;;;;;9.63;8.67;;;10.10;99.90;;;;;;5113836;28;20196;-72
2022/06/01 02:36:33;;;;;;;9.60;8.50;;;10.30;99.90;;;;;;5113831;28;20203;-73
2022/06/01 02:39:02;;;;;;;9.80;8.90;;;10.30;99.90;;;;;;5113672;28;20616;-72
2022/06/01 02:44:17;;;;;;;9.30;8.23;;;10.30;99.90;;;;;;5113833;28;20278;-72
2022/06/01 02:46:43;;;;;;;8.90;8.07;;;10.30;99.90;;;;;;5113747;28;20199;-72
2022/06/01 02:49:10;;;;;;;10.47;9.37;;;10.30;99.90;;;;;;5113521;28;20322;-72
2022/06/01 02:51:37;;;;;;;11.33;9.77;;;10.40;99.90;;;;;;5113535;28;20199;-72
2022/06/01 02:54:04;;;;;;;10.80;9.70;;;10.40;99.90;;;;;;5113825;28;20320;-72
2022/06/01 02:56:31;;;;;;;11.83;10.60;;;10.50;99.90;;;;;;5113568;28;20204;-72
2022/06/01 02:58:57;;;;;;;12.03;10.83;;;10.40;99.90;;;;;;5113566;28;20199;-72
2022/06/01 03:01:25;;;;;;;11.93;10.60;;;10.40;99.90;;;;;;5113379;28;20200;-72
2022/06/01 03:03:53;;;;;;;11.13;9.23;;;10.30;99.90;;;;;;5113110;28;20220;-72
2022/06/01 03:06:19;;;;;;;10.70;9.33;;;10.30;99.90;;;;;;5113562;28;20202;-72
2022/06/01 03:08:46;;;;;;;10.80;9.63;;;10.30;99.90;;;;;;5113333;28;20227;-72
2022/06/01 03:11:13;;;;;;;14.40;9.37;;;10.20;99.90;;;;;;5113355;28;20195;-72
2022/06/01 03:13:40;;;;;;;15.03;10.07;;;10.20;99.90;;;;;;5113378;28;20429;-72
2022/06/01 03:16:06;;;;;;;10.50;9.40;;;10.10;99.90;;;;;;5113224;28;20192;-72
2022/06/01 03:18:34;;;;;;;10.27;9.20;;;10.10;99.90;;;;;;5113080;28;20248;-72
2022/06/01 03:21:01;;;;;;;10.17;9.17;;;9.90;99.90;;;;;;5113334;28;20199;-72
2022/06/01 03:23:28;;;;;;;14.00;11.33;;;9.90;99.90;;;;;;5113548;28;20199;-72
2022/06/01 03:25:55;;;;;;;11.83;10.70;;;10.00;99.90;;;;;;5119655;28;20196;-72
2022/06/01 03:28:23;;;;;;;11.93;10.83;;;9.90;99.90;;;;;;5119867;28;20559;-72
2022/06/01 03:30:50;;;;;;;12.67;10.33;;;9.90;99.90;;;;;;5119936;28;20287;-72
2022/06/01 03:33:18;;;;;;;11.50;10.27;;;9.80;99.90;;;;;;5119822;28;20209;-72
2022/06/01 03:35:46;;;;;;;11.87;10.67;;;9.70;99.90;;;;;;5119886;28;20742;-72
2022/06/01 03:38:13;;;;;;;12.47;10.33;;;9.60;99.90;;;;;;5119981;28;20203;-72
2022/06/01 03:40:39;;;;;;;11.77;10.60;;;9.60;99.90;;;;;;5119963;28;20191;-72
2022/06/01 03:43:07;;;;;;;12.83;11.43;;;9.60;99.90;;;;;;5119861;28;20192;-72
2022/06/01 03:48:18;;;;;;;14.10;12.10;;;9.70;99.90;;;;;;5119866;28;20292;-71
2022/06/01 03:50:46;;;;;;;13.53;12.10;;;9.70;99.90;;;;;;5119884;28;20260;-71
2022/06/01 03:53:13;;;;;;;14.13;12.83;;;9.70;99.90;;;;;;5119772;28;20195;-72
2022/06/01 03:55:40;;;;;;;16.27;13.43;;;9.70;99.90;;;;;;5119762;28;20202;-72
2022/06/01 03:58:07;;;;;;;15.00;13.60;;;9.70;99.90;;;;;;5119585;28;20225;-72
2022/06/01 04:00:34;;;;;;;16.83;15.13;;;9.70;99.90;;;;;;5119886;28;20195;-72
2022/06/01 04:03:01;;;;;;;16.00;14.20;;;9.80;99.90;;;;;;5119569;28;20276;-72
2022/06/01 04:05:28;;;;;;;15.23;13.63;;;9.80;99.90;;;;;;5119688;28;20199;-72
2022/06/01 04:07:56;;;;;;;15.97;14.33;;;9.70;99.90;;;;;;5119520;28;20219;-72
2022/06/01 04:10:24;;;;;;;15.17;13.57;;;9.80;99.90;;;;;;5119671;28;20196;-73
2022/06/01 04:12:50;;;;;;;17.63;14.47;;;9.80;99.90;;;;;;5119497;28;20196;-73
2022/06/01 04:15:17;;;;;;;15.70;14.00;;;9.90;99.90;;;;;;5119814;28;20199;-73
2022/06/01 04:17:44;;;;;;;15.63;14.13;;;9.90;99.90;;;;;;5119614;28;20196;-73
2022/06/01 04:20:16;;;;;;;15.67;14.00;;;10.00;99.90;;;;;;5119585;28;20600;-74
2022/06/01 04:22:44;;;;;;;13.90;12.53;;;10.00;99.90;;;;;;5119700;28;20606;-73
2022/06/01 04:25:16;;;;;;;13.80;12.30;;;10.10;99.90;;;;;;5119482;28;20196;-73
2022/06/01 04:27:43;;;;;;;13.63;12.23;;;10.20;99.90;;;;;;5119418;28;20249;-73
2022/06/01 04:30:13;;;;;;;13.00;11.70;;;10.20;99.90;;;;;;5119419;28;20256;-73
2022/06/01 04:32:40;;;;;;;12.50;11.23;;;10.30;99.90;;;;;;5119687;28;20196;-73
2022/06/01 04:35:07;;;;;;;13.60;11.70;;;10.40;99.90;;;;;;5119017;28;20195;-73
2022/06/01 04:37:34;;;;;;;12.00;10.90;;;10.50;99.90;;;;;;5115123;28;20248;-73
2022/06/01 04:40:01;;;;;;;11.53;10.40;;;10.60;99.90;;;;;;5116148;28;20237;-73
2022/06/01 04:42:29;;;;;;;11.57;9.73;;;10.60;99.90;;;;;;5115963;28;20221;-72
2022/06/01 04:44:56;;;;;;;10.10;9.20;;;10.80;99.90;;;;;;5116088;28;20256;-73
2022/06/01 04:47:22;;;;;;;9.97;8.97;;;10.90;99.90;;;;;;5116004;28;20196;-72
2022/06/01 04:49:49;;;;;;;14.73;8.60;;;11.00;99.90;;;;;;5115805;28;20219;-73
2022/06/01 04:52:16;;;;;;;9.10;8.13;;;11.10;99.90;;;;;;5120420;28;20221;-73
2022/06/01 04:54:42;;;;;;;8.60;7.83;;;11.20;99.90;;;;;;5115610;28;20593;-73
2022/06/01 04:57:09;;;;;;;9.20;8.30;;;11.30;99.90;;;;;;5115841;28;20195;-73
2022/06/01 04:59:37;;;;;;;10.77;7.87;;;11.40;99.90;;;;;;5115654;28;20203;-76
2022/06/01 05:02:05;;;;;;;8.67;7.87;;;11.50;99.90;;;;;;5115572;28;20200;-76
2022/06/01 05:04:32;;;;;;;11.53;8.93;;;11.50;99.90;;;;;;5115411;28;20276;-77
2022/06/01 05:07:00;;;;;;;8.17;7.47;;;11.70;99.90;;;;;;5115350;28;20199;-76
2022/06/01 05:09:27;;;;;;;8.97;8.17;;;11.80;99.90;;;;;;5112707;27;20223;-77
2022/06/01 05:11:53;;;;;;;10.17;8.37;;;12.00;99.90;;;;;;5113295;27;20245;-76
2022/06/01 05:14:20;;;;;;;8.67;7.83;;;12.10;99.90;;;;;;5114637;28;20199;-77
2022/06/01 05:16:48;;;;;;;8.17;7.33;;;12.20;99.90;;;;;;5114926;28;20200;-78
2022/06/01 05:19:15;;;;;;;8.10;7.37;;;12.30;99.90;;;;;;5115610;28;20605;-78
2022/06/01 05:21:41;;;;;;;11.47;7.27;;;12.50;99.90;;;;;;5114679;28;20601;-77
2022/06/01 05:24:08;;;;;;;8.63;7.73;;;12.60;99.90;;;;;;5114773;28;20196;-77
2022/06/01 05:26:36;;;;;;;7.20;6.60;;;12.70;99.90;;;;;;5115449;28;20200;-77
2022/06/01 05:29:03;;;;;;;9.03;6.83;;;12.70;99.90;;;;;;5115177;28;20696;-77
2022/06/01 05:31:29;;;;;;;9.37;7.00;;;12.80;99.90;;;;;;5114753;28;20298;-78
2022/06/01 05:33:57;;;;;;;7.13;6.43;;;12.80;99.90;;;;;;5114127;28;20248;-77
2022/06/01 05:36:24;;;;;;;7.50;6.80;;;13.00;99.90;;;;;;5114894;28;20200;-78
2022/06/01 05:38:50;;;;;;;6.93;6.33;;;13.10;99.90;;;;;;5114758;28;20600;-77
2022/06/01 05:41:17;;;;;;;7.37;6.67;;;13.10;99.90;;;;;;5114443;28;20249;-77
2022/06/01 05:43:45;;;;;;;9.30;6.20;;;13.20;99.90;;;;;;5113908;28;20200;-78
2022/06/01 05:46:12;;;;;;;8.60;6.10;;;13.30;99.90;;;;;;5113981;28;20196;-78
2022/06/01 05:48:39;;;;;;;6.10;5.50;;;13.40;99.90;;;;;;5113642;28;20223;-77
2022/06/01 05:51:07;;;;;;;6.10;5.60;;;13.50;99.90;;;;;;5114644;28;20200;-76
2022/06/01 05:53:34;;;;;;;7.53;5.63;;;13.70;99.90;;;;;;5114189;28;20677;-76
2022/06/01 05:56:00;;;;;;;7.37;5.47;;;13.90;99.90;;;;;;5114244;28;20248;-76
2022/06/01 05:58:29;;;;;;;6.03;5.37;;;14.00;99.90;;;;;;5114315;28;20221;-76
2022/06/01 06:01:00;;;;;;;5.93;5.33;;;14.10;99.90;;;;;;5114776;28;20195;-78
2022/06/01 06:03:27;;;;;;;7.93;5.50;;;14.20;99.90;;;;;;5114622;28;20709;-73
2022/06/01 06:06:15;;;;;;;5.53;5.00;;;14.30;99.90;;;;;;5114586;28;20282;-72
2022/06/01 06:08:45;;;;;;;6.23;4.90;;;14.40;99.90;;;;;;5112224;28;20215;-73
2022/06/01 06:11:12;;;;;;;7.00;5.17;;;14.50;99.90;;;;;;5114114;28;20195;-72
2022/06/01 06:13:39;;;;;;;5.73;5.10;;;14.70;99.90;;;;;;5113926;28;20708;-72
2022/06/01 06:16:07;;;;;;;6.77;4.63;;;14.80;99.90;;;;;;5121913;27;20283;-72
2022/06/01 06:18:34;;;;;;;6.17;4.87;;;14.90;99.90;;;;;;5123688;27;20597;-72
2022/06/01 06:21:01;;;;;;;7.10;4.50;;;15.00;99.90;;;;;;5123132;27;20235;-79
2022/06/01 06:23:28;;;;;;;21.33;5.00;;;15.10;99.90;;;;;;5122767;27;20265;-79
2022/06/01 06:25:57;;;;;;;17.40;5.13;;;15.20;99.90;;;;;;5115415;27;20669;-79
2022/06/01 06:28:24;;;;;;;7.43;4.70;;;15.20;99.90;;;;;;5113637;28;20225;-79
2022/06/01 06:30:52;;;;;;;8.63;4.37;;;15.40;99.90;;;;;;5117723;27;20187;-75
2022/06/01 06:33:18;;;;;;;5.17;4.67;;;15.50;99.90;;;;;;5113538;28;20624;-75
2022/06/01 06:35:45;;;;;;;6.13;4.33;;;15.70;99.90;;;;;;5113613;28;20604;-75
2022/06/01 06:38:12;;;;;;;5.80;4.47;;;15.90;99.90;;;;;;5113414;28;20635;-75
2022/06/01 06:40:39;;;;;;;5.97;3.93;;;16.00;99.90;;;;;;5113452;28;20650;-75
2022/06/01 06:43:07;;;;;;;6.23;4.10;;;16.10;99.90;;;;;;5123068;27;20566;-80
2022/06/01 06:45:34;;;;;;;5.97;4.60;;;16.00;99.90;;;;;;5134003;27;20210;-76
2022/06/01 06:48:00;;;;;;;4.83;4.00;;;16.00;99.90;;;;;;5134063;27;20206;-79
2022/06/01 06:50:27;;;;;;;4.10;3.70;;;16.00;99.90;;;;;;5124313;27;20219;-76
2022/06/01 06:52:54;;;;;;;5.23;3.80;;;16.00;99.90;;;;;;5115859;27;20215;-75
2022/06/01 06:55:20;;;;;;;4.43;3.50;;;16.10;99.90;;;;;;5133155;27;20444;-74
2022/06/01 06:57:47;;;;;;;5.83;3.83;;;16.20;99.90;;;;;;5121606;27;20711;-73
2022/06/01 07:00:17;;;;;;;4.90;3.13;;;16.40;99.90;;;;;;5118441;27;20214;-72
2022/06/01 07:02:44;;;;;;;4.53;3.50;;;16.40;99.90;;;;;;5121774;27;20187;-72
2022/06/01 07:06:08;;;;;;;4.37;3.33;;;16.50;99.90;;;;;;5121779;27;20227;-73
2022/06/01 07:07:57;;;;;;;4.20;3.05;;;16.70;99.90;;;;;;5122665;27;20280;-72
2022/06/01 07:10:24;;;;;;;3.85;3.08;;;16.80;99.90;;;;;;5120874;27;20698;-73
2022/06/01 07:12:50;;;;;;;4.03;3.40;;;16.90;99.90;;;;;;5122375;27;20195;-73
2022/06/01 07:15:19;;;;;;;4.82;2.97;;;17.10;99.90;;;;;;5122767;27;20191;-74
2022/06/01 07:17:45;;;;;;;3.40;2.97;;;17.10;99.90;;;;;;5121138;27;20188;-72
2022/06/01 07:20:12;;;;;;;4.18;3.22;;;17.20;99.90;;;;;;5122061;27;20674;-72
2022/06/01 07:22:39;;;;;;;6.55;3.70;;;17.20;99.90;;;;;;5123235;28;20190;-74
2022/06/01 07:25:06;;;;;;;5.03;2.97;;;17.30;99.90;;;;;;5121357;28;20196;-74
2022/06/01 07:27:33;;;;;;;4.25;3.20;;;17.20;99.90;;;;;;5121943;28;20183;-71
2022/06/01 07:29:59;;;;;;;4.05;3.10;;;17.50;99.90;;;;;;5122731;28;20220;-72
2022/06/01 07:32:27;;;;;;;4.22;3.10;;;17.90;99.90;;;;;;5121011;28;20187;-75
2022/06/01 07:34:54;;;;;;;4.55;3.42;;;18.20;99.90;;;;;;5121474;28;20191;-75
2022/06/01 07:45:31;;;;;;;4.15;2.70;;;18.20;99.90;;;;;;5112947;28;20198;-74
2022/06/01 07:47:59;;;;;;;5.28;3.08;;;18.40;99.90;;;;;;5112648;28;20544;-74
2022/06/01 07:50:25;;;;;;;3.40;2.72;;;18.40;99.90;;;;;;5112413;28;20284;-75
2022/06/01 07:52:52;;;;;;;5.20;3.10;;;18.80;99.90;;;;;;5112808;28;20199;-75
2022/06/01 07:55:19;;;;;;;3.90;2.90;;;19.00;99.30;;;;;;5111669;28;20252;-75
2022/06/01 07:57:45;;;;;;;2.92;2.70;;;19.00;96.50;;;;;;5110479;28;20200;-73
2022/06/01 08:00:13;;;;;;;4.32;2.53;;;19.00;92.80;;;;;;5110697;28;20191;-73
2022/06/01 08:02:40;;;;;;;4.13;2.70;;;18.80;92.70;;;;;;5110283;28;20206;-74
2022/06/01 08:05:09;;;;;;;7.00;2.70;;;19.00;92.70;;;;;;5110362;28;20276;-74
2022/06/01 08:07:36;;;;;;;4.72;2.30;;;19.00;90.80;;;;;;5110813;28;20252;-74
2022/06/01 08:10:04;;;;;;;6.28;2.88;;;19.20;82.50;;;;;;5111379;28;20621;-74
2022/06/01 08:15:15;;;;;;;2.08;1.88;;;19.30;66.10;;;;;;5116185;28;20342;-74
2022/06/01 08:17:44;;;;;;;3.85;1.95;;;18.90;60.90;;;;;;5116319;28;20196;-74
2022/06/01 08:20:12;;;;;;;2.45;1.92;;;18.90;57.00;;;;;;5116279;28;20207;-74
2022/06/01 08:22:40;;;;;;;3.22;1.95;;;18.90;55.80;;;;;;5116099;28;20234;-74
2022/06/01 08:25:08;;;;;;;3.13;1.92;;;19.20;56.60;;;;;;5116265;28;20204;-74
2022/06/01 08:27:35;;;;;;;4.80;2.35;;;19.60;55.60;;;;;;5116217;28;20199;-74
2022/06/01 08:30:02;;;;;;;2.17;1.98;;;19.90;52.30;;;;;;5116112;28;20222;-74
2022/06/01 08:32:28;;;;;;;3.28;2.28;;;20.30;52.10;;;;;;5116099;28;20248;-74
2022/06/01 08:34:55;;;;;;;3.95;2.17;;;20.30;51.00;;;;;;5116021;28;20612;-74
2022/06/01 08:37:23;;;;;;;4.47;2.42;;;19.80;50.30;;;;;;5115873;28;20204;-74
2022/06/01 08:39:50;;;;;;;4.85;2.20;;;20.00;51.10;;;;;;5116089;28;20260;-75
2022/06/01 08:42:20;;;;;;;2.08;1.88;;;19.90;50.80;;;;;;5116038;28;20199;-75
2022/06/01 08:44:49;;;;;;;4.60;2.17;;;19.90;52.50;;;;;;5115889;28;20666;-76
2022/06/01 08:47:23;;;;;;;6.70;2.60;;;20.00;51.70;;;;;;5115881;28;20199;-75
2022/06/01 08:49:50;;;;;;;2.53;2.20;;;19.80;51.70;;;;;;5115729;28;20277;-75
2022/06/01 08:52:16;;;;;;;4.68;2.20;;;19.70;51.60;;;;;;5115785;28;20199;-75
2022/06/01 08:54:44;;;;;;;4.15;2.00;;;19.80;51.60;;;;;;5115859;28;20248;-75
2022/06/01 08:57:15;;;;;;;2.80;2.15;;;20.30;50.10;;;;;;5115583;28;20199;-75
2022/06/01 08:59:51;;;;;;;4.50;1.88;;;20.70;48.30;;;;;;5115692;28;20191;-75
2022/06/01 09:02:28;;;;;;;4.32;2.15;;;20.70;42.10;;;;;;5115445;28;20195;-75
2022/06/01 09:04:58;;;;;;;3.08;1.90;;;20.60;41.50;;;;;;5115374;28;20233;-75
2022/06/01 09:07:29;;;;;;;2.15;1.90;;;20.60;42.40;;;;;;5115257;28;20666;-75
2022/06/01 09:10:25;;;;;;;3.30;2.13;;;20.50;42.30;;;;;;5115163;28;20694;-76
2022/06/01 09:13:00;;;;;;;3.75;1.90;;;20.40;44.40;;;;;;5112633;28;20245;-75
2022/06/01 09:15:29;;;;;;;5.18;1.80;;;20.50;44.30;;;;;;5115520;28;20203;-75
2022/06/01 09:17:56;;;;;;;3.15;2.00;;;20.50;43.20;;;;;;5115317;28;20200;-75
2022/06/01 09:23:11;;;;;;;3.25;2.03;;;20.40;41.30;;;;;;5114313;28;20567;-75
2022/06/01 09:25:38;;;;;;;4.35;1.75;;;21.40;39.50;;;;;;5115026;28;20601;-75
2022/06/01 09:28:19;;;;;;;2.22;1.80;;;20.90;34.60;;;;;;5114931;28;20200;-75
2022/06/01 09:30:54;;;;;;;3.15;1.70;;;20.90;35.90;;;;;;5114800;28;20648;-76
2022/06/01 09:33:25;;;;;;;4.22;1.88;;;21.00;38.00;;;;;;5114760;28;20646;-76
2022/06/01 09:36:05;;;;;;;3.10;2.00;;;21.30;37.00;;;;;;5114698;28;20204;-75
2022/06/01 09:38:38;;;;;;;3.28;1.73;;;21.30;34.70;;;;;;5114934;28;20268;-75
2022/06/01 09:41:10;;;;;;;2.10;1.75;;;21.40;33.90;;;;;;5114729;28;20200;-76
2022/06/01 09:43:41;;;;;;;3.67;1.90;;;21.20;34.70;;;;;;5114660;28;20192;-76
2022/06/01 09:46:09;;;;;;;2.17;1.80;;;21.10;34.50;;;;;;5114740;28;20544;-76
2022/06/01 09:48:39;;;;;;;2.83;1.95;;;21.00;35.00;;;;;;5114937;28;20208;-76
2022/06/01 09:51:14;;;;;;;4.80;1.95;;;21.10;36.50;;;;;;5114590;28;20310;-75
2022/06/01 09:53:44;;;;;;;2.00;1.80;;;21.10;34.30;;;;;;5114626;28;20711;-76
2022/06/01 09:56:12;;;;;;;2.60;1.90;;;21.20;34.90;;;;;;5114552;28;20225;-76
2022/06/01 10:07:00;;;;;;;1.73;1.63;;;22.20;32.10;;;;;;5114223;28;20199;-76
2022/06/01 10:09:29;;;;;;;5.55;1.92;;;21.50;32.60;;;;;;5114305;28;20191;-76
2022/06/01 10:11:58;;;;;;;3.40;1.88;;;21.10;33.60;;;;;;5114230;28;20195;-76
2022/06/01 10:14:30;;;;;;;3.42;1.90;;;21.50;33.80;;;;;;5113956;28;20717;-76
2022/06/01 10:17:21;;;;;;;3.25;1.80;;;21.60;33.80;;;;;;5114066;28;20213;-76
2022/06/01 10:19:54;;;;;;;3.40;1.88;;;21.70;33.20;;;;;;5110196;28;20294;-76
2022/06/01 10:22:28;;;;;;;2.28;2.08;;;21.90;33.80;;;;;;5113981;28;20742;-77
2022/06/01 10:24:58;;;;;;;2.55;2.30;;;22.70;32.40;;;;;;5113834;28;20597;-75
2022/06/01 10:27:29;;;;;;;2.85;2.20;;;23.20;31.50;;;;;;5113805;28;20195;-75
2022/06/01 10:30:06;;;;;;;3.35;2.20;;;23.30;31.30;;;;;;5113445;28;20714;-75
2022/06/01 10:32:42;;;;;;;2.35;1.90;;;22.70;31.20;;;;;;5113895;28;20236;-75
2022/06/01 10:35:21;;;;;;;3.90;2.00;;;23.20;31.50;;;;;;5112881;28;20620;-75
2022/06/01 10:38:01;;;;;;;4.85;2.00;;;23.00;30.60;;;;;;5113652;28;20196;-75
2022/06/01 10:40:35;;;;;;;4.63;2.08;;;23.80;30.10;;;;;;5113336;28;20195;-75
2022/06/01 10:43:19;;;;;;;4.95;2.10;;;23.50;30.30;;;;;;5113663;28;20257;-76
2022/06/01 10:45:54;;;;;;;4.15;2.08;;;23.40;30.10;;;;;;5113481;28;20206;-76
2022/06/01 10:48:26;;;;;;;2.97;2.00;;;24.10;29.40;;;;;;5113540;28;20195;-75
2022/06/01 10:51:02;;;;;;;3.28;1.55;;;24.00;28.50;;;;;;5113293;28;20215;-76
2022/06/01 10:53:39;;;;;;;2.42;1.80;;;24.40;27.70;;;;;;5113585;28;20195;-76
2022/06/01 10:56:07;;;;;;;2.38;1.90;;;23.80;28.60;;;;;;5113310;28;20670;-76
2022/06/01 10:58:35;;;;;;;2.75;2.00;;;23.70;27.90;;;;;;5113405;28;20196;-76
2022/06/01 11:01:09;;;;;;;3.72;2.30;;;22.60;30.00;;;;;;5113050;28;20196;-76
2022/06/01 11:03:58;;;;;;;4.80;2.25;;;21.70;32.20;;;;;;5113180;28;20316;-76
2022/06/01 11:06:41;;;;;;;3.85;2.30;;;22.00;32.90;;;;;;5113529;28;20198;-76
2022/06/01 11:09:19;;;;;;;3.33;1.92;;;23.70;31.20;;;;;;5113297;28;20199;-76
2022/06/01 11:11:50;;;;;;;2.97;2.17;;;23.80;30.10;;;;;;5112960;28;20590;-76
2022/06/01 11:14:35;;;;;;;5.28;2.20;;;23.00;29.80;;;;;;5113354;28;20195;-76
2022/06/01 11:17:08;;;;;;;3.65;2.00;;;25.20;29.90;;;;;;5113207;28;20200;-76
2022/06/01 11:19:51;;;;;;;2.83;2.40;;;25.00;28.70;;;;;;5112866;28;20199;-76
2022/06/01 11:22:39;;;;;;;2.65;1.85;;;24.30;27.90;;;;;;5113278;28;20268;-76
2022/06/01 11:25:14;;;;;;;5.22;2.20;;;24.70;27.50;;;;;;5113054;28;20248;-76
2022/06/01 11:28:00;;;;;;;2.42;1.95;;;24.50;28.00;;;;;;5113004;28;20232;-76
2022/06/01 11:30:32;;;;;;;3.58;2.00;;;23.10;27.50;;;;;;5112838;28;20273;-76
2022/06/01 11:33:09;;;;;;;2.25;2.03;;;22.80;28.00;;;;;;5113113;28;20196;-76
2022/06/01 11:35:39;;;;;;;3.17;2.10;;;22.50;28.80;;;;;;5113015;28;20195;-76
2022/06/01 11:38:11;;;;;;;2.75;2.00;;;23.80;27.50;;;;;;5112687;28;20520;-76
2022/06/01 11:40:43;;;;;;;2.67;2.15;;;25.00;27.20;;;;;;5112745;28;20228;-76
2022/06/01 11:43:19;;;;;;;2.28;2.00;;;26.40;26.00;;;;;;5112889;28;20203;-76
2022/06/01 11:45:49;;;;;;;5.30;2.08;;;25.60;25.30;;;;;;5114476;28;20244;-77
2022/06/01 11:48:24;;;;;;;2.80;1.58;;;25.50;25.60;;;;;;5117103;28;20264;-76
2022/06/01 11:51:02;;;;;;;3.38;2.20;;;26.20;25.00;;;;;;5116776;28;20666;-76
2022/06/01 11:53:35;;;;;;;5.97;1.85;;;25.20;24.80;;;;;;5116953;28;20207;-76
2022/06/01 11:56:15;;;;;;;3.55;1.95;;;26.00;25.20;;;;;;5117071;28;20196;-76
2022/06/01 11:58:47;;;;;;;4.18;1.80;;;25.90;24.00;;;;;;5117356;28;20286;-76
2022/06/01 12:01:16;;;;;;;4.03;2.20;;;27.00;23.30;;;;;;5116896;28;20589;-76
2022/06/01 12:03:57;;;;;;;1.98;1.73;;;25.40;23.30;;;;;;5116497;28;20220;-76
2022/06/01 12:06:42;;;;;;;3.38;1.80;;;24.90;24.60;;;;;;5116744;28;20203;-76
2022/06/01 12:09:17;;;;;;;4.25;2.10;;;26.20;24.30;;;;;;5123220;28;20248;-76
2022/06/01 12:11:46;;;;;;;3.97;2.00;;;25.60;24.10;;;;;;5138373;28;20203;-76
2022/06/01 12:14:29;;;;;;;3.03;1.67;;;26.30;24.10;;;;;;5141753;28;20254;-76
2022/06/01 12:17:29;;;;;;;4.53;1.90;;;26.60;23.40;;;;;;5141087;28;20209;-76
2022/06/01 12:20:34;;;;;;;1.92;1.83;;;28.20;22.80;;;;;;5137565;28;20214;-76
2022/06/01 12:29:43;;;;;;;5.65;2.10;;;27.10;23.00;;;;;;5053406;28;20196;-76
2022/06/01 12:32:12;;;;;;;3.97;1.90;;;25.90;24.10;;;;;;5053389;28;20240;-76
2022/06/01 12:34:48;;;;;;;2.92;1.95;;;25.30;24.10;;;;;;5083255;28;20232;-77
2022/06/01 12:37:21;;;;;;;2.10;1.80;;;25.20;25.00;;;;;;5116525;28;20270;-76
2022/06/01 12:39:54;;;;;;;4.25;2.15;;;25.90;24.70;;;;;;5098114;28;20201;-76
2022/06/01 12:42:25;;;;;;;3.83;2.25;;;25.40;24.90;;;;;;5116187;28;20195;-77
2022/06/01 12:44:55;;;;;;;2.50;2.20;;;26.10;24.70;;;;;;5116184;28;20277;-76
2022/06/01 12:47:23;;;;;;;3.33;2.28;;;26.20;25.10;;;;;;5115932;28;20553;-76
2022/06/01 12:49:50;;;;;;;3.25;2.10;;;27.30;24.20;;;;;;5116063;28;20199;-76
2022/06/01 12:52:20;;;;;;;3.80;2.25;;;27.80;24.40;;;;;;5115953;28;20624;-77
2022/06/01 12:54:57;;;;;;;3.72;2.20;;;27.70;22.60;;;;;;5115857;28;20540;-76
2022/06/01 12:57:27;;;;;;;4.10;2.58;;;28.30;23.20;;;;;;5114856;28;20196;-76
2022/06/01 12:59:58;;;;;;;3.75;2.20;;;28.30;21.90;;;;;;5116042;28;20550;-76
2022/06/01 13:02:27;;;;;;;4.55;2.20;;;29.80;21.80;;;;;;5115872;28;20195;-77
2022/06/01 13:04:56;;;;;;;3.80;2.15;;;30.80;20.30;;;;;;5115661;28;20234;-76
2022/06/01 13:07:28;;;;;;;5.32;2.15;;;29.80;19.90;;;;;;5115748;28;20199;-77
2022/06/01 13:10:01;;;;;;;4.10;2.25;;;28.70;21.60;;;;;;5115760;28;20199;-77
2022/06/01 13:12:30;;;;;;;2.97;2.40;;;27.50;22.60;;;;;;5115585;28;20276;-77
2022/06/01 13:15:09;;;;;;;2.85;2.63;;;26.70;23.60;;;;;;5115738;28;20207;-77
2022/06/01 13:17:46;;;;;;;4.47;2.70;;;25.90;24.30;;;;;;5115684;28;20203;-76
2022/06/01 13:20:14;;;;;;;5.20;2.40;;;26.00;24.90;;;;;;5115531;28;20199;-76
2022/06/01 13:22:44;;;;;;;5.18;2.10;;;24.60;25.80;;;;;;5115100;28;20294;-77
2022/06/01 13:25:16;;;;;;;2.55;2.20;;;26.10;25.10;;;;;;5115447;28;20199;-77
2022/06/01 13:27:43;;;;;;;5.13;2.40;;;27.00;23.30;;;;;;5115366;28;20200;-77
2022/06/01 13:30:15;;;;;;;3.40;2.20;;;27.70;23.00;;;;;;5115461;28;20199;-77
2022/06/01 13:32:44;;;;;;;6.03;2.22;;;26.30;23.90;;;;;;5115150;28;20556;-77
2022/06/01 13:35:32;;;;;;;3.92;2.35;;;25.80;24.70;;;;;;5115112;28;20207;-76
2022/06/01 13:37:59;;;;;;;7.75;2.20;;;24.90;25.30;;;;;;5115168;28;20199;-76